sensor_id;sensor_type;location;lat;lon;timestamp;pressure;altitude;pressure_sealevel;temperature;humidity
68197;BME280;55019;49.382;11.358;2024-02-21T00:01:16;97509.59;;;4.37;100.00
68197;BME280;55019;49.382;11.358;2024-02-21T00:03:42;97499.47;;;4.35;100.00
68197;BME280;55019;49.382;11.358;2024-02-21T00:06:07;97501.09;;;4.36;100.00
68197;BME280;55019;49.382;11.358;2024-02-21T00:08:33;97503.56;;;4.38;100.00
68197;BME280;55019;49.382;11.358;2024-02-21T00:10:59;97491.06;;;4.33;100.00
68197;BME280;55019;49.382;11.358;2024-02-21T00:13:24;97492.50;;;4.37;100.00
68197;BME280;55019;49.382;11.358;2024-02-21T00:15:50;97489.84;;;4.39;100.00
68197;BME280;55019;49.382;11.358;2024-02-21T00:18:16;97475.94;;;4.43;100.00
68197;BME280;55019;49.382;11.358;2024-02-21T00:20:41;97483.31;;;4.35;100.00
68197;BME280;55019;49.382;11.358;2024-02-21T00:23:07;97477.56;;;4.44;100.00
68197;BME280;55019;49.382;11.358;2024-02-21T00:25:33;97479.00;;;4.48;100.00
68197;BME280;55019;49.382;11.358;2024-02-21T00:27:59;97481.84;;;4.43;100.00
68197;BME280;55019;49.382;11.358;2024-02-21T00:30:24;97469.19;;;4.42;100.00
68197;BME280;55019;49.382;11.358;2024-02-21T00:32:50;97467.63;;;4.52;100.00
68197;BME280;55019;49.382;11.358;2024-02-21T00:35:16;97474.38;;;4.53;100.00
68197;BME280;55019;49.382;11.358;2024-02-21T00:37:41;97463.00;;;4.44;100.00
68197;BME280;55019;49.382;11.358;2024-02-21T00:40:07;97460.44;;;4.57;100.00
68197;BME280;55019;49.382;11.358;2024-02-21T00:42:33;97460.88;;;4.51;100.00
68197;BME280;55019;49.382;11.358;2024-02-21T00:44:59;97447.03;;;4.53;100.00
68197;BME280;55019;49.382;11.358;2024-02-21T00:47:25;97452.34;;;4.50;100.00
68197;BME280;55019;49.382;11.358;2024-02-21T00:49:50;97459.00;;;4.65;100.00
68197;BME280;55019;49.382;11.358;2024-02-21T00:52:16;97457.88;;;4.57;100.00
68197;BME280;55019;49.382;11.358;2024-02-21T00:54:42;97462.16;;;4.56;100.00
68197;BME280;55019;49.382;11.358;2024-02-21T00:57:07;97454.91;;;4.50;100.00
68197;BME280;55019;49.382;11.358;2024-02-21T00:59:33;97451.41;;;4.64;100.00
68197;BME280;55019;49.382;11.358;2024-02-21T01:02:01;97439.25;;;4.55;100.00
68197;BME280;55019;49.382;11.358;2024-02-21T01:04:27;97435.56;;;4.59;100.00
68197;BME280;55019;49.382;11.358;2024-02-21T01:06:53;97436.50;;;4.58;100.00
68197;BME280;55019;49.382;11.358;2024-02-21T01:09:18;97435.13;;;4.65;100.00
68197;BME280;55019;49.382;11.358;2024-02-21T01:11:44;97444.44;;;4.66;100.00
68197;BME280;55019;49.382;11.358;2024-02-21T01:14:10;97428.78;;;4.70;100.00
68197;BME280;55019;49.382;11.358;2024-02-21T01:16:36;97426.31;;;4.69;100.00
68197;BME280;55019;49.382;11.358;2024-02-21T01:19:02;97429.38;;;4.74;100.00
68197;BME280;55019;49.382;11.358;2024-02-21T01:21:28;97425.19;;;4.73;100.00
68197;BME280;55019;49.382;11.358;2024-02-21T01:23:54;97420.75;;;4.75;100.00
68197;BME280;55019;49.382;11.358;2024-02-21T01:26:19;97415.22;;;4.81;100.00
68197;BME280;55019;49.382;11.358;2024-02-21T01:28:45;97421.59;;;4.75;100.00
68197;BME280;55019;49.382;11.358;2024-02-21T01:31:11;97416.25;;;4.78;100.00
68197;BME280;55019;49.382;11.358;2024-02-21T01:33:37;97404.75;;;4.84;100.00
68197;BME280;55019;49.382;11.358;2024-02-21T01:36:05;97414.50;;;4.79;100.00
68197;BME280;55019;49.382;11.358;2024-02-21T01:38:34;97419.41;;;4.82;100.00
68197;BME280;55019;49.382;11.358;2024-02-21T01:41:00;97399.06;;;4.80;100.00
68197;BME280;55019;49.382;11.358;2024-02-21T01:43:26;97404.94;;;4.93;100.00
68197;BME280;55019;49.382;11.358;2024-02-21T01:45:53;97398.84;;;4.83;100.00
68197;BME280;55019;49.382;11.358;2024-02-21T01:48:19;97390.66;;;4.78;100.00
68197;BME280;55019;49.382;11.358;2024-02-21T01:50:55;97394.09;;;4.90;100.00
68197;BME280;55019;49.382;11.358;2024-02-21T01:53:25;97390.31;;;4.83;100.00
68197;BME280;55019;49.382;11.358;2024-02-21T01:55:53;97380.81;;;4.85;100.00
68197;BME280;55019;49.382;11.358;2024-02-21T01:58:24;97376.72;;;4.82;100.00
68197;BME280;55019;49.382;11.358;2024-02-21T02:00:53;97376.50;;;4.85;100.00
68197;BME280;55019;49.382;11.358;2024-02-21T02:03:21;97375.47;;;4.88;100.00
68197;BME280;55019;49.382;11.358;2024-02-21T02:05:48;97374.97;;;4.83;100.00
68197;BME280;55019;49.382;11.358;2024-02-21T02:08:19;97365.44;;;4.85;100.00
68197;BME280;55019;49.382;11.358;2024-02-21T02:10:45;97367.09;;;4.86;100.00
68197;BME280;55019;49.382;11.358;2024-02-21T02:13:14;97368.00;;;4.85;100.00
68197;BME280;55019;49.382;11.358;2024-02-21T02:15:45;97357.66;;;4.86;100.00
68197;BME280;55019;49.382;11.358;2024-02-21T02:18:11;97358.84;;;4.93;100.00
68197;BME280;55019;49.382;11.358;2024-02-21T02:20:37;97359.19;;;4.89;100.00
68197;BME280;55019;49.382;11.358;2024-02-21T02:23:11;97360.69;;;4.91;100.00
68197;BME280;55019;49.382;11.358;2024-02-21T02:25:39;97371.53;;;4.95;100.00
68197;BME280;55019;49.382;11.358;2024-02-21T02:28:07;97363.38;;;4.90;100.00
68197;BME280;55019;49.382;11.358;2024-02-21T02:30:36;97364.41;;;4.87;100.00
68197;BME280;55019;49.382;11.358;2024-02-21T02:33:05;97365.38;;;4.97;100.00
68197;BME280;55019;49.382;11.358;2024-02-21T02:35:32;97364.53;;;4.86;100.00
68197;BME280;55019;49.382;11.358;2024-02-21T02:37:58;97355.91;;;4.87;100.00
68197;BME280;55019;49.382;11.358;2024-02-21T02:40:24;97349.25;;;4.84;100.00
68197;BME280;55019;49.382;11.358;2024-02-21T02:42:50;97352.84;;;4.82;100.00
68197;BME280;55019;49.382;11.358;2024-02-21T02:45:17;97351.59;;;4.87;100.00
68197;BME280;55019;49.382;11.358;2024-02-21T02:47:46;97346.59;;;4.86;100.00
68197;BME280;55019;49.382;11.358;2024-02-21T02:50:12;97342.41;;;4.85;100.00
68197;BME280;55019;49.382;11.358;2024-02-21T02:52:38;97341.03;;;4.92;100.00
68197;BME280;55019;49.382;11.358;2024-02-21T02:55:05;97335.94;;;5.03;100.00
68197;BME280;55019;49.382;11.358;2024-02-21T02:57:30;97331.53;;;5.05;100.00
68197;BME280;55019;49.382;11.358;2024-02-21T02:59:56;97324.63;;;4.94;100.00
68197;BME280;55019;49.382;11.358;2024-02-21T03:02:23;97320.34;;;4.95;100.00
68197;BME280;55019;49.382;11.358;2024-02-21T03:04:48;97312.38;;;4.87;100.00
68197;BME280;55019;49.382;11.358;2024-02-21T03:07:15;97314.94;;;4.87;100.00
68197;BME280;55019;49.382;11.358;2024-02-21T03:09:41;97320.78;;;4.89;100.00
68197;BME280;55019;49.382;11.358;2024-02-21T03:12:10;97306.81;;;4.93;100.00
68197;BME280;55019;49.382;11.358;2024-02-21T03:14:36;97304.81;;;4.85;100.00
68197;BME280;55019;49.382;11.358;2024-02-21T03:17:03;97314.94;;;4.87;100.00
68197;BME280;55019;49.382;11.358;2024-02-21T03:19:29;97305.25;;;4.79;100.00
68197;BME280;55019;49.382;11.358;2024-02-21T03:21:55;97303.78;;;4.88;100.00
68197;BME280;55019;49.382;11.358;2024-02-21T03:24:21;97319.94;;;4.88;100.00
68197;BME280;55019;49.382;11.358;2024-02-21T03:26:47;97318.00;;;4.92;100.00
68197;BME280;55019;49.382;11.358;2024-02-21T03:29:14;97312.97;;;4.90;100.00
68197;BME280;55019;49.382;11.358;2024-02-21T03:31:40;97315.75;;;4.87;100.00
68197;BME280;55019;49.382;11.358;2024-02-21T03:34:06;97308.19;;;4.86;100.00
68197;BME280;55019;49.382;11.358;2024-02-21T03:36:32;97300.28;;;4.89;100.00
68197;BME280;55019;49.382;11.358;2024-02-21T03:38:58;97309.31;;;4.82;100.00
68197;BME280;55019;49.382;11.358;2024-02-21T03:41:23;97297.44;;;4.81;100.00
68197;BME280;55019;49.382;11.358;2024-02-21T03:43:49;97299.41;;;5.01;100.00
68197;BME280;55019;49.382;11.358;2024-02-21T03:46:15;97296.59;;;4.93;100.00
68197;BME280;55019;49.382;11.358;2024-02-21T03:48:41;97301.69;;;4.93;100.00
68197;BME280;55019;49.382;11.358;2024-02-21T03:51:07;97294.09;;;4.80;100.00
68197;BME280;55019;49.382;11.358;2024-02-21T03:53:33;97302.63;;;4.92;100.00
68197;BME280;55019;49.382;11.358;2024-02-21T03:56:02;97301.09;;;4.89;100.00
68197;BME280;55019;49.382;11.358;2024-02-21T03:58:30;97299.91;;;4.82;100.00
68197;BME280;55019;49.382;11.358;2024-02-21T04:00:56;97300.94;;;4.80;100.00
68197;BME280;55019;49.382;11.358;2024-02-21T04:03:21;97292.72;;;4.87;100.00
68197;BME280;55019;49.382;11.358;2024-02-21T04:05:47;97285.00;;;4.76;100.00
68197;BME280;55019;49.382;11.358;2024-02-21T04:08:13;97290.13;;;4.76;100.00
68197;BME280;55019;49.382;11.358;2024-02-21T04:10:39;97294.19;;;4.79;100.00
68197;BME280;55019;49.382;11.358;2024-02-21T04:13:06;97291.41;;;4.82;100.00
68197;BME280;55019;49.382;11.358;2024-02-21T04:15:32;97286.00;;;4.74;100.00
68197;BME280;55019;49.382;11.358;2024-02-21T04:17:58;97277.41;;;4.75;100.00
68197;BME280;55019;49.382;11.358;2024-02-21T04:20:24;97277.63;;;4.72;100.00
68197;BME280;55019;49.382;11.358;2024-02-21T04:22:49;97273.44;;;4.71;100.00
68197;BME280;55019;49.382;11.358;2024-02-21T04:25:15;97268.56;;;4.79;100.00
68197;BME280;55019;49.382;11.358;2024-02-21T04:27:41;97255.75;;;4.68;100.00
68197;BME280;55019;49.382;11.358;2024-02-21T04:30:07;97255.53;;;4.71;100.00
68197;BME280;55019;49.382;11.358;2024-02-21T04:32:33;97255.75;;;4.68;100.00
68197;BME280;55019;49.382;11.358;2024-02-21T04:34:59;97246.44;;;4.67;100.00
68197;BME280;55019;49.382;11.358;2024-02-21T04:37:25;97249.16;;;4.76;100.00
68197;BME280;55019;49.382;11.358;2024-02-21T04:39:51;97237.63;;;4.82;100.00
68197;BME280;55019;49.382;11.358;2024-02-21T04:42:17;97241.34;;;4.78;100.00
68197;BME280;55019;49.382;11.358;2024-02-21T04:44:43;97234.88;;;4.85;100.00
68197;BME280;55019;49.382;11.358;2024-02-21T04:47:08;97230.88;;;4.81;100.00
68197;BME280;55019;49.382;11.358;2024-02-21T04:49:34;97232.03;;;4.77;100.00
68197;BME280;55019;49.382;11.358;2024-02-21T04:52:01;97226.91;;;4.77;100.00
68197;BME280;55019;49.382;11.358;2024-02-21T04:54:26;97221.91;;;4.75;100.00
68197;BME280;55019;49.382;11.358;2024-02-21T04:56:52;97219.22;;;4.77;100.00
68197;BME280;55019;49.382;11.358;2024-02-21T04:59:18;97223.19;;;4.70;100.00
68197;BME280;55019;49.382;11.358;2024-02-21T05:01:44;97229.81;;;4.72;100.00
68197;BME280;55019;49.382;11.358;2024-02-21T05:04:10;97233.19;;;4.73;100.00
68197;BME280;55019;49.382;11.358;2024-02-21T05:06:42;97224.34;;;4.77;100.00
68197;BME280;55019;49.382;11.358;2024-02-21T05:09:08;97219.13;;;4.67;100.00
68197;BME280;55019;49.382;11.358;2024-02-21T05:11:36;97225.88;;;4.68;100.00
68197;BME280;55019;49.382;11.358;2024-02-21T05:14:02;97227.59;;;4.68;100.00
68197;BME280;55019;49.382;11.358;2024-02-21T05:16:29;97231.22;;;4.65;100.00
68197;BME280;55019;49.382;11.358;2024-02-21T05:18:54;97228.91;;;4.73;100.00
68197;BME280;55019;49.382;11.358;2024-02-21T05:21:23;97217.47;;;4.66;100.00
68197;BME280;55019;49.382;11.358;2024-02-21T05:23:49;97215.00;;;4.65;100.00
68197;BME280;55019;49.382;11.358;2024-02-21T05:26:24;97213.38;;;4.64;100.00
68197;BME280;55019;49.382;11.358;2024-02-21T05:28:51;97207.56;;;4.62;100.00
68197;BME280;55019;49.382;11.358;2024-02-21T05:31:20;97200.50;;;4.65;100.00
68197;BME280;55019;49.382;11.358;2024-02-21T05:33:49;97203.16;;;4.64;100.00
68197;BME280;55019;49.382;11.358;2024-02-21T05:36:15;97199.88;;;4.62;100.00
68197;BME280;55019;49.382;11.358;2024-02-21T05:38:40;97204.31;;;4.71;100.00
68197;BME280;55019;49.382;11.358;2024-02-21T05:41:06;97206.19;;;4.69;100.00
68197;BME280;55019;49.382;11.358;2024-02-21T05:43:32;97191.75;;;4.68;100.00
68197;BME280;55019;49.382;11.358;2024-02-21T05:45:57;97200.38;;;4.78;100.00
68197;BME280;55019;49.382;11.358;2024-02-21T05:48:23;97188.75;;;4.74;100.00
68197;BME280;55019;49.382;11.358;2024-02-21T05:50:50;97191.22;;;4.86;100.00
68197;BME280;55019;49.382;11.358;2024-02-21T05:53:16;97186.44;;;4.82;100.00
68197;BME280;55019;49.382;11.358;2024-02-21T05:55:42;97187.19;;;4.95;100.00
68197;BME280;55019;49.382;11.358;2024-02-21T05:58:08;97185.72;;;4.80;100.00
68197;BME280;55019;49.382;11.358;2024-02-21T06:00:39;97188.88;;;4.72;100.00
68197;BME280;55019;49.382;11.358;2024-02-21T06:03:05;97185.16;;;4.76;100.00
68197;BME280;55019;49.382;11.358;2024-02-21T06:05:31;97177.63;;;4.86;100.00
68197;BME280;55019;49.382;11.358;2024-02-21T06:07:57;97182.69;;;4.75;100.00
68197;BME280;55019;49.382;11.358;2024-02-21T06:10:23;97180.38;;;4.72;100.00
68197;BME280;55019;49.382;11.358;2024-02-21T06:12:48;97176.97;;;4.60;100.00
68197;BME280;55019;49.382;11.358;2024-02-21T06:15:14;97192.22;;;4.62;100.00
68197;BME280;55019;49.382;11.358;2024-02-21T06:17:40;97179.19;;;4.65;100.00
68197;BME280;55019;49.382;11.358;2024-02-21T06:20:06;97183.06;;;4.70;100.00
68197;BME280;55019;49.382;11.358;2024-02-21T06:22:32;97193.13;;;4.61;100.00
68197;BME280;55019;49.382;11.358;2024-02-21T06:24:58;97186.28;;;4.61;100.00
68197;BME280;55019;49.382;11.358;2024-02-21T06:27:24;97186.38;;;4.60;100.00
68197;BME280;55019;49.382;11.358;2024-02-21T06:29:50;97189.19;;;4.68;100.00
68197;BME280;55019;49.382;11.358;2024-02-21T06:32:15;97185.38;;;4.73;100.00
68197;BME280;55019;49.382;11.358;2024-02-21T06:34:41;97192.47;;;4.81;100.00
68197;BME280;55019;49.382;11.358;2024-02-21T06:37:07;97186.66;;;4.79;100.00
68197;BME280;55019;49.382;11.358;2024-02-21T06:39:32;97195.88;;;4.81;100.00
68197;BME280;55019;49.382;11.358;2024-02-21T06:41:58;97196.66;;;4.82;100.00
68197;BME280;55019;49.382;11.358;2024-02-21T06:44:24;97210.16;;;4.84;100.00
68197;BME280;55019;49.382;11.358;2024-02-21T06:46:50;97207.13;;;4.79;100.00
68197;BME280;55019;49.382;11.358;2024-02-21T06:49:15;97200.38;;;4.78;100.00
68197;BME280;55019;49.382;11.358;2024-02-21T06:51:42;97201.53;;;4.74;100.00
68197;BME280;55019;49.382;11.358;2024-02-21T06:54:08;97217.84;;;4.73;100.00
68197;BME280;55019;49.382;11.358;2024-02-21T06:56:36;97207.59;;;4.73;100.00
68197;BME280;55019;49.382;11.358;2024-02-21T06:59:02;97210.63;;;4.78;100.00
68197;BME280;55019;49.382;11.358;2024-02-21T07:01:29;97211.56;;;4.77;100.00
68197;BME280;55019;49.382;11.358;2024-02-21T07:03:56;97209.69;;;4.79;100.00
68197;BME280;55019;49.382;11.358;2024-02-21T07:06:22;97213.19;;;4.78;100.00
68197;BME280;55019;49.382;11.358;2024-02-21T07:08:48;97211.09;;;4.83;100.00
68197;BME280;55019;49.382;11.358;2024-02-21T07:11:14;97217.16;;;4.82;100.00
68197;BME280;55019;49.382;11.358;2024-02-21T07:13:40;97215.56;;;4.92;100.00
68197;BME280;55019;49.382;11.358;2024-02-21T07:16:07;97207.44;;;5.09;100.00
68197;BME280;55019;49.382;11.358;2024-02-21T07:18:32;97192.75;;;4.89;100.00
68197;BME280;55019;49.382;11.358;2024-02-21T07:20:58;97192.63;;;4.90;100.00
68197;BME280;55019;49.382;11.358;2024-02-21T07:23:24;97189.75;;;4.95;100.00
68197;BME280;55019;49.382;11.358;2024-02-21T07:25:50;97180.66;;;4.91;100.00
68197;BME280;55019;49.382;11.358;2024-02-21T07:28:16;97187.88;;;4.97;100.00
68197;BME280;55019;49.382;11.358;2024-02-21T07:30:43;97179.50;;;5.06;100.00
68197;BME280;55019;49.382;11.358;2024-02-21T07:33:09;97169.94;;;5.19;100.00
68197;BME280;55019;49.382;11.358;2024-02-21T07:35:35;97174.38;;;5.28;100.00
68197;BME280;55019;49.382;11.358;2024-02-21T07:38:06;97186.50;;;5.26;100.00
68197;BME280;55019;49.382;11.358;2024-02-21T07:40:32;97176.03;;;5.40;100.00
68197;BME280;55019;49.382;11.358;2024-02-21T07:42:58;97177.97;;;5.58;100.00
68197;BME280;55019;49.382;11.358;2024-02-21T07:45:23;97169.22;;;5.71;100.00
68197;BME280;55019;49.382;11.358;2024-02-21T07:47:50;97170.97;;;5.60;100.00
68197;BME280;55019;49.382;11.358;2024-02-21T07:50:16;97167.47;;;5.61;100.00
68197;BME280;55019;49.382;11.358;2024-02-21T07:52:42;97173.41;;;5.72;100.00
68197;BME280;55019;49.382;11.358;2024-02-21T07:55:08;97172.47;;;5.95;100.00
68197;BME280;55019;49.382;11.358;2024-02-21T07:57:36;97162.22;;;5.95;100.00
68197;BME280;55019;49.382;11.358;2024-02-21T08:00:02;97167.16;;;6.19;100.00
68197;BME280;55019;49.382;11.358;2024-02-21T08:02:38;97176.97;;;6.45;100.00
68197;BME280;55019;49.382;11.358;2024-02-21T08:05:04;97169.59;;;6.72;100.00
68197;BME280;55019;49.382;11.358;2024-02-21T08:07:29;97169.59;;;6.72;100.00
68197;BME280;55019;49.382;11.358;2024-02-21T08:09:56;97162.91;;;7.10;100.00
68197;BME280;55019;49.382;11.358;2024-02-21T08:12:22;97168.28;;;7.28;100.00
68197;BME280;55019;49.382;11.358;2024-02-21T08:14:48;97170.84;;;7.28;100.00
68197;BME280;55019;49.382;11.358;2024-02-21T08:17:13;97164.94;;;7.07;100.00
68197;BME280;55019;49.382;11.358;2024-02-21T08:19:39;97156.19;;;6.89;100.00
68197;BME280;55019;49.382;11.358;2024-02-21T08:22:05;97152.84;;;7.28;100.00
68197;BME280;55019;49.382;11.358;2024-02-21T08:24:30;97140.59;;;7.80;100.00
68197;BME280;55019;49.382;11.358;2024-02-21T08:26:56;97133.56;;;7.92;100.00
68197;BME280;55019;49.382;11.358;2024-02-21T08:29:22;97131.44;;;8.44;100.00
68197;BME280;55019;49.382;11.358;2024-02-21T08:31:48;97132.25;;;8.73;100.00
68197;BME280;55019;49.382;11.358;2024-02-21T08:34:14;97120.13;;;10.27;100.00
68197;BME280;55019;49.382;11.358;2024-02-21T08:36:39;97113.19;;;11.88;100.00
68197;BME280;55019;49.382;11.358;2024-02-21T08:39:05;97111.78;;;11.27;100.00
68197;BME280;55019;49.382;11.358;2024-02-21T08:41:31;97114.97;;;11.21;100.00
68197;BME280;55019;49.382;11.358;2024-02-21T08:43:57;97109.56;;;10.81;100.00
68197;BME280;55019;49.382;11.358;2024-02-21T08:46:23;97123.13;;;10.57;100.00
68197;BME280;55019;49.382;11.358;2024-02-21T08:48:51;97129.75;;;10.77;100.00
68197;BME280;55019;49.382;11.358;2024-02-21T08:51:17;97123.00;;;11.10;100.00
68197;BME280;55019;49.382;11.358;2024-02-21T08:53:47;97124.09;;;10.82;100.00
68197;BME280;55019;49.382;11.358;2024-02-21T08:56:13;97125.59;;;11.10;100.00
68197;BME280;55019;49.382;11.358;2024-02-21T08:58:40;97114.06;;;11.63;100.00
68197;BME280;55019;49.382;11.358;2024-02-21T09:01:06;97118.88;;;11.25;94.28
68197;BME280;55019;49.382;11.358;2024-02-21T09:03:39;97117.19;;;11.08;98.42
68197;BME280;55019;49.382;11.358;2024-02-21T09:06:05;97115.56;;;11.07;98.26
68197;BME280;55019;49.382;11.358;2024-02-21T09:08:32;97107.84;;;10.64;100.00
68197;BME280;55019;49.382;11.358;2024-02-21T09:10:57;97101.41;;;10.68;100.00
68197;BME280;55019;49.382;11.358;2024-02-21T09:13:23;97101.75;;;12.14;91.89
68197;BME280;55019;49.382;11.358;2024-02-21T09:15:49;97100.00;;;12.79;84.82
68197;BME280;55019;49.382;11.358;2024-02-21T09:18:15;97091.09;;;12.57;80.83
68197;BME280;55019;49.382;11.358;2024-02-21T09:20:42;97101.63;;;12.40;81.20
68197;BME280;55019;49.382;11.358;2024-02-21T09:23:09;97102.00;;;11.87;89.53
68197;BME280;55019;49.382;11.358;2024-02-21T09:25:34;97098.75;;;11.85;85.41
68197;BME280;55019;49.382;11.358;2024-02-21T09:28:01;97093.75;;;13.19;81.73
68197;BME280;55019;49.382;11.358;2024-02-21T09:30:28;97090.47;;;14.02;75.84
68197;BME280;55019;49.382;11.358;2024-02-21T09:32:53;97088.63;;;12.88;70.04
68197;BME280;55019;49.382;11.358;2024-02-21T09:35:19;97075.97;;;13.55;67.30
68197;BME280;55019;49.382;11.358;2024-02-21T09:37:47;97082.00;;;12.13;77.98
68197;BME280;55019;49.382;11.358;2024-02-21T09:40:15;97071.53;;;13.25;70.42
68197;BME280;55019;49.382;11.358;2024-02-21T09:42:43;97074.31;;;15.25;62.13
68197;BME280;55019;49.382;11.358;2024-02-21T09:45:23;97061.56;;;16.72;52.03
68197;BME280;55019;49.382;11.358;2024-02-21T09:50:43;97080.75;;;15.00;52.60
68197;BME280;55019;49.382;11.358;2024-02-21T09:53:12;97070.56;;;15.92;51.58
68197;BME280;55019;49.382;11.358;2024-02-21T09:55:39;97073.56;;;15.89;50.65
68197;BME280;55019;49.382;11.358;2024-02-21T09:58:07;97061.09;;;14.83;54.25
68197;BME280;55019;49.382;11.358;2024-02-21T10:00:35;97063.34;;;14.86;56.94
68197;BME280;55019;49.382;11.358;2024-02-21T10:03:01;97062.97;;;15.41;52.61
68197;BME280;55019;49.382;11.358;2024-02-21T10:05:26;97069.84;;;16.82;49.69
68197;BME280;55019;49.382;11.358;2024-02-21T10:07:53;97067.34;;;15.90;50.40
68197;BME280;55019;49.382;11.358;2024-02-21T10:10:21;97054.31;;;15.90;50.19
68197;BME280;55019;49.382;11.358;2024-02-21T10:12:51;97055.97;;;14.75;53.05
68197;BME280;55019;49.382;11.358;2024-02-21T10:15:35;97053.63;;;15.82;53.44
68197;BME280;55019;49.382;11.358;2024-02-21T10:18:01;97048.16;;;16.12;51.19
68197;BME280;55019;49.382;11.358;2024-02-21T10:20:29;97044.69;;;14.97;53.18
68197;BME280;55019;49.382;11.358;2024-02-21T10:23:05;97030.66;;;15.56;54.22
68197;BME280;55019;49.382;11.358;2024-02-21T10:25:34;97028.03;;;16.75;49.64
68197;BME280;55019;49.382;11.358;2024-02-21T10:28:02;97020.81;;;16.50;48.14
68197;BME280;55019;49.382;11.358;2024-02-21T10:30:28;97019.50;;;16.60;48.09
68197;BME280;55019;49.382;11.358;2024-02-21T10:32:54;97015.25;;;16.11;49.43
68197;BME280;55019;49.382;11.358;2024-02-21T10:37:54;97013.78;;;17.33;47.88
68197;BME280;55019;49.382;11.358;2024-02-21T10:40:25;97014.84;;;15.72;49.04
68197;BME280;55019;49.382;11.358;2024-02-21T10:42:56;97012.81;;;15.53;52.02
68197;BME280;55019;49.382;11.358;2024-02-21T10:45:44;97016.34;;;15.02;51.85
68197;BME280;55019;49.382;11.358;2024-02-21T10:48:12;97005.22;;;15.37;52.19
68197;BME280;55019;49.382;11.358;2024-02-21T10:53:29;96996.34;;;14.23;56.55
68197;BME280;55019;49.382;11.358;2024-02-21T10:58:53;96983.97;;;15.90;49.93
68197;BME280;55019;49.382;11.358;2024-02-21T11:01:21;96974.53;;;15.89;50.25
68197;BME280;55019;49.382;11.358;2024-02-21T11:03:48;96980.50;;;14.46;52.05
68197;BME280;55019;49.382;11.358;2024-02-21T11:06:15;96965.03;;;15.61;50.96
68197;BME280;55019;49.382;11.358;2024-02-21T11:08:42;96966.09;;;15.16;50.36
68197;BME280;55019;49.382;11.358;2024-02-21T11:11:08;96963.97;;;16.39;50.36
68197;BME280;55019;49.382;11.358;2024-02-21T11:13:37;96944.88;;;15.90;49.59
68197;BME280;55019;49.382;11.358;2024-02-21T11:16:21;96956.69;;;14.72;52.94
68197;BME280;55019;49.382;11.358;2024-02-21T11:18:47;96961.31;;;14.11;55.15
68197;BME280;55019;49.382;11.358;2024-02-21T11:21:13;96957.84;;;13.96;60.39
68197;BME280;55019;49.382;11.358;2024-02-21T11:23:39;96962.19;;;14.03;56.34
68197;BME280;55019;49.382;11.358;2024-02-21T11:28:31;96936.31;;;14.75;56.23
68197;BME280;55019;49.382;11.358;2024-02-21T11:31:13;96932.69;;;14.19;54.95
68197;BME280;55019;49.382;11.358;2024-02-21T11:33:40;96916.88;;;14.86;54.69
68197;BME280;55019;49.382;11.358;2024-02-21T11:36:08;96914.16;;;15.44;52.28
68197;BME280;55019;49.382;11.358;2024-02-21T11:38:34;96918.38;;;14.51;53.23
68197;BME280;55019;49.382;11.358;2024-02-21T11:40:59;96903.78;;;15.29;52.64
68197;BME280;55019;49.382;11.358;2024-02-21T11:43:25;96902.56;;;14.96;53.19
68197;BME280;55019;49.382;11.358;2024-02-21T11:45:59;96887.91;;;17.16;47.34
68197;BME280;55019;49.382;11.358;2024-02-21T11:48:25;96880.81;;;18.67;45.13
68197;BME280;55019;49.382;11.358;2024-02-21T11:50:55;96881.88;;;19.03;42.18
68197;BME280;55019;49.382;11.358;2024-02-21T11:53:21;96884.47;;;16.07;45.56
68197;BME280;55019;49.382;11.358;2024-02-21T11:55:47;96873.44;;;17.07;44.96
68197;BME280;55019;49.382;11.358;2024-02-21T11:58:13;96871.59;;;17.67;43.07
68197;BME280;55019;49.382;11.358;2024-02-21T12:00:40;96867.78;;;17.96;42.64
68197;BME280;55019;49.382;11.358;2024-02-21T12:03:07;96856.38;;;18.80;39.69
68197;BME280;55019;49.382;11.358;2024-02-21T12:05:33;96847.56;;;17.19;43.57
68197;BME280;55019;49.382;11.358;2024-02-21T12:07:59;96846.44;;;16.13;44.45
68197;BME280;55019;49.382;11.358;2024-02-21T12:10:28;96851.47;;;18.20;42.30
68197;BME280;55019;49.382;11.358;2024-02-21T12:13:05;96831.72;;;18.50;40.17
68197;BME280;55019;49.382;11.358;2024-02-21T12:15:31;96831.19;;;18.15;38.01
68197;BME280;55019;49.382;11.358;2024-02-21T12:17:57;96833.53;;;15.15;44.10
68197;BME280;55019;49.382;11.358;2024-02-21T12:20:23;96830.44;;;15.68;44.01
68197;BME280;55019;49.382;11.358;2024-02-21T12:22:49;96827.00;;;15.04;46.03
68197;BME280;55019;49.382;11.358;2024-02-21T12:25:16;96824.34;;;15.19;43.59
68197;BME280;55019;49.382;11.358;2024-02-21T12:40:33;96792.69;;;16.46;42.81
68197;BME280;55019;49.382;11.358;2024-02-21T12:43:00;96788.00;;;16.82;41.65
68197;BME280;55019;49.382;11.358;2024-02-21T12:45:28;96794.38;;;16.26;40.32
68197;BME280;55019;49.382;11.358;2024-02-21T12:47:54;96789.88;;;17.01;40.53
68197;BME280;55019;49.382;11.358;2024-02-21T12:50:20;96777.63;;;16.41;41.77
68197;BME280;55019;49.382;11.358;2024-02-21T12:52:48;96771.59;;;16.41;41.44
68197;BME280;55019;49.382;11.358;2024-02-21T12:55:15;96763.94;;;15.44;42.32
68197;BME280;55019;49.382;11.358;2024-02-21T12:57:42;96773.72;;;15.00;43.53
68197;BME280;55019;49.382;11.358;2024-02-21T13:00:08;96766.03;;;14.92;43.92
68197;BME280;55019;49.382;11.358;2024-02-21T13:02:35;96758.03;;;15.84;42.65
68197;BME280;55019;49.382;11.358;2024-02-21T13:05:00;96746.78;;;16.58;41.11
68197;BME280;55019;49.382;11.358;2024-02-21T13:07:28;96742.78;;;15.54;42.53
68197;BME280;55019;49.382;11.358;2024-02-21T13:09:54;96729.09;;;15.45;41.20
68197;BME280;55019;49.382;11.358;2024-02-21T13:12:20;96722.66;;;15.69;40.42
68197;BME280;55019;49.382;11.358;2024-02-21T13:14:46;96727.38;;;14.89;42.04